createdAt,value
2023-03-02T17:29:55.654Z,29.08
2023-03-02T17:32:23.627Z,29.52
2023-03-02T17:34:51.134Z,28.33
2023-03-02T17:38:39.584Z,34.47
2023-03-02T17:41:08.533Z,32.88
2023-03-02T17:43:37.815Z,33.35
2023-03-02T17:46:12.766Z,27.15
2023-03-02T17:48:40.919Z,26.65
2023-03-02T17:51:08.014Z,27.75
2023-03-02T17:53:35.066Z,31.80
2023-03-02T17:56:02.050Z,26.88
2023-03-02T17:58:42.858Z,28.77
2023-03-02T18:01:12.555Z,32.40
2023-03-02T18:03:39.850Z,25.83
2023-03-02T18:06:07.320Z,26.70
2023-03-02T18:08:34.363Z,27.45
2023-03-02T18:11:01.236Z,30.77
2023-03-02T18:13:28.968Z,29.70
2023-03-02T18:15:55.993Z,25.48
2023-03-02T18:18:23.253Z,31.83
2023-03-02T18:20:50.475Z,27.30
2023-03-02T18:23:17.458Z,27.33
2023-03-02T18:25:44.407Z,27.05
2023-03-02T18:28:11.256Z,24.58
2023-03-02T18:30:38.216Z,25.55
2023-03-02T18:33:05.268Z,31.40
2023-03-02T18:35:32.281Z,28.48
2023-03-02T18:37:59.203Z,33.30
2023-03-02T18:40:26.072Z,34.20
2023-03-02T18:42:52.933Z,25.73
2023-03-02T18:45:29.625Z,29.85
2023-03-02T18:47:58.271Z,27.10
2023-03-02T18:50:26.205Z,26.25
2023-03-02T18:52:53.552Z,28.30
2023-03-02T18:55:22.397Z,32.78
2023-03-02T18:57:49.295Z,32.10
2023-03-02T19:00:25.473Z,27.10
2023-03-02T19:02:53.825Z,32.40
2023-03-02T19:05:21.082Z,34.25
2023-03-02T19:07:50.021Z,31.70
2023-03-02T19:10:17.263Z,32.55
2023-03-02T19:12:44.309Z,28.50
2023-03-02T19:15:12.041Z,31.90
2023-03-02T19:17:42.569Z,31.33
2023-03-02T19:20:16.876Z,38.38
2023-03-02T19:22:44.186Z,36.17
2023-03-02T19:25:11.591Z,37.90
2023-03-02T19:27:40.164Z,37.05
2023-03-02T19:30:09.956Z,37.10
2023-03-02T19:32:38.299Z,37.03
2023-03-02T19:35:06.030Z,35.90
2023-03-02T19:37:33.640Z,34.25
2023-03-02T19:40:00.646Z,36.50
2023-03-02T19:42:28.254Z,33.65
2023-03-02T19:44:55.309Z,34.97
2023-03-02T19:47:22.272Z,35.00
2023-03-02T19:49:49.215Z,40.35
2023-03-02T19:52:16.333Z,39.85
2023-03-02T19:54:43.712Z,35.70
2023-03-02T19:57:10.847Z,41.47
2023-03-02T19:59:41.095Z,37.20
2023-03-02T20:02:08.051Z,37.47
2023-03-02T20:04:35.283Z,35.33
2023-03-02T20:07:03.159Z,35.65
2023-03-02T20:09:30.187Z,41.00
2023-03-02T20:11:58.687Z,35.00
2023-03-02T20:14:33.887Z,37.40
2023-03-02T20:17:02.841Z,37.10
2023-03-02T20:19:29.896Z,43.20
2023-03-02T20:21:57.041Z,40.03
2023-03-02T20:24:24.111Z,44.63
2023-03-02T20:26:51.163Z,41.28
2023-03-02T20:29:18.866Z,36.25
2023-03-02T20:31:47.033Z,37.15
2023-03-02T20:34:16.705Z,40.83
2023-03-02T20:36:45.137Z,45.80
2023-03-02T20:39:23.511Z,37.15
2023-03-02T20:41:51.346Z,39.25
2023-03-02T20:44:19.526Z,37.67
2023-03-02T20:46:52.264Z,38.75
2023-03-02T20:49:21.088Z,37.80
2023-03-02T20:51:53.018Z,38.22
2023-03-02T20:54:48.329Z,43.85
2023-03-02T20:57:20.461Z,38.58
2023-03-02T20:59:48.309Z,36.67
2023-03-02T21:02:17.985Z,38.50
2023-03-02T21:04:45.883Z,43.50
2023-03-02T21:07:13.504Z,37.75
2023-03-02T21:09:40.903Z,39.00
2023-03-02T21:12:08.863Z,36.67
2023-03-02T21:14:39.905Z,38.65
2023-03-02T21:17:07.861Z,36.30
2023-03-02T21:19:35.774Z,38.22
2023-03-02T21:22:03.609Z,40.75
2023-03-02T21:24:30.728Z,37.33
2023-03-02T21:26:57.817Z,42.33
2023-03-02T21:29:26.753Z,40.63
2023-03-02T21:31:54.681Z,41.47
2023-03-02T21:34:22.456Z,34.13
2023-03-02T21:36:53.550Z,41.20
2023-03-02T21:39:23.906Z,40.42
2023-03-02T21:41:52.320Z,41.08
2023-03-02T21:44:19.729Z,41.97
2023-03-02T21:46:47.696Z,40.95
2023-03-02T21:49:20.652Z,40.55
2023-03-02T21:51:49.826Z,42.45
2023-03-02T21:54:17.345Z,42.42
2023-03-02T21:56:44.762Z,47.20
2023-03-02T21:59:12.831Z,43.05
2023-03-02T22:01:40.107Z,42.58
2023-03-02T22:04:07.455Z,45.35
2023-03-02T22:06:36.429Z,48.38
2023-03-02T22:09:05.571Z,42.83
2023-03-02T22:11:38.314Z,40.65
2023-03-02T22:14:15.160Z,38.28
2023-03-02T22:16:46.527Z,38.55
2023-03-02T22:19:27.219Z,39.35
2023-03-02T22:21:56.036Z,42.63
2023-03-02T22:24:26.088Z,45.08
2023-03-02T22:26:56.282Z,41.85
2023-03-02T22:29:28.205Z,39.10
2023-03-02T22:32:00.815Z,39.40
2023-03-02T22:34:31.742Z,44.05
2023-03-02T22:37:11.457Z,41.17
2023-03-02T22:39:42.070Z,41.72
2023-03-02T22:42:12.380Z,43.75
2023-03-02T22:44:39.737Z,39.88
2023-03-02T22:47:18.726Z,44.38
2023-03-02T22:49:47.398Z,44.10
2023-03-02T22:52:20.564Z,43.58
2023-03-02T22:54:48.352Z,43.70
2023-03-02T22:57:31.701Z,44.97
2023-03-02T23:00:18.864Z,43.22
2023-03-02T23:02:46.534Z,41.08
2023-03-02T23:05:28.119Z,41.50
2023-03-02T23:08:16.739Z,45.90
2023-03-02T23:10:44.972Z,42.55
2023-03-02T23:13:14.471Z,46.17
2023-03-02T23:15:41.942Z,41.70
2023-03-02T23:18:28.172Z,40.85
2023-03-02T23:20:55.558Z,43.45
2023-03-02T23:23:24.652Z,40.08
2023-03-02T23:25:51.579Z,54.97
2023-03-02T23:28:18.450Z,42.60
2023-03-02T23:30:45.867Z,44.10
2023-03-02T23:33:12.846Z,46.05
2023-03-02T23:35:40.022Z,44.75
2023-03-02T23:38:07.015Z,42.08
2023-03-02T23:40:34.723Z,42.53
2023-03-02T23:43:01.724Z,42.50
2023-03-02T23:45:28.957Z,39.15
2023-03-02T23:47:57.714Z,38.38
2023-03-02T23:50:24.836Z,38.97
2023-03-02T23:52:51.871Z,38.53
2023-03-02T23:55:19.034Z,39.10
2023-03-02T23:57:46.177Z,42.10
